Scroll down
FLIGHT INFORMATION
PMDG Flight Operations

PFO1222

At Arrival Gate

KLAX
 KIAD
DATE: 2018-12-22
GATE: 159
GATE DEPARTURE: 20:12
TAKEOFF: 20:24
DATE: 2018-12-23
GATE: B41
LANDING: 00:18
GATE ARRIVAL: 00:25
FLIGHT DATA
Crew: 
Speed: 
492 kts
Altitude: 
37,013 ft
Stage Length: 
1,983.6 nm
Block Time: 
4.2 hrs
Flight Time: 
3.9 hrs
Fuel Used: 
80,324 lb
Cleared Route: SLI TUSTI HEMET TRM PKE ABQ KK36A EOS ESTEE HVQ FIMPA WOJOW BURTT PHOOW HESEE GYSLO BBONE KILMR OTTTO MAAAY RYPIN GIBBZ SUNYJ UDIYU MATTC
TRACK DATA
50,000 ft 1,000 kts
AIRCRAFT INFO AND CUMULATIVE STATS
Aircraft Type: 
B744M
Registration: 
SELCAL: 
MSN/LN: 
0 / 2
Total Flights: 
3
Total Block Time: 
11.6 hrs
Total Flight Time: 
10.6 hrs
Total Fuel Time: 
230,558 lb
DATALINK LOG | Newest first | Current as of: 2020-12-05 22:44:13
LABEL SEQUENCE CONTENT Dn/Up
QD253300:25 44.2▼ Dn
QC180800:18▼ Dn
2U4526KIAD 222252Z 27008KT 10SM BKN050 07/M01 A2999 RMK AO2 SLP157 T00671011▲ Up
2S4332KIAD▼ Dn
GA0601GATE B41▲ Up
GR0515KIAD▼ Dn
QB233620:23▼ Dn
QA114420:11 124.6▼ Dn
2U0352KLAX 221953Z 25003KT 5SM HZ FEW230 SCT300 18/11 A3006 RMK AO2 SLP177 T01830111▲ Up
2S0215KLAX▼ Dn


AIRCRAFT HISTORY
FLIGHT DATE FLIGHT NO. ORIGIN DESTINATION CLEARED ROUTE BLOCK TIME FLIGHT TIME FUEL USED PILOT
2018-12-22PFO1222KLAX KIAD SLI TUSTI HEMET TRM PKE ABQ KK36A EOS ESTEE HVQ FIMPA WOJOW BURTT PHOOW HESEE GYSLO BBONE KILMR OTTTO MAAAY RYPIN GIBBZ SUNYJ UDIYU MATTC4.2 hrs3.9 hrs80,324 lbKyle Rodgers
2018-10-29PFO1029KBOS KLAX TJAYY BOATT HEARR MARBB HYLND HANAA ARNII GOATR AHPAH KELTI AGDOX OMRAK HOCKE BAE DBQ CAPPR JORDY TODDO OBH DVV DVC PEEWE EEEZY DUZIT LAKRR ZZYZX HAKMN SHTNR SMASH SALYY GLESN ANJLL CAANN BOYEL CRCUS5.9 hrs5.5 hrs119,848 lbKyle Rodgers
2018-09-09PFO744KIAD KBOS 1.6 hrs1.2 hrs30,386 lb-HIDDEN-